Time;durP1;ratioP1;P1;durP2;ratioP2;P2;SDS_P1;SDS_P2;PMS_P1;PMS_P2;Temp;Humidity;BMP_temperature;BMP_pressure;BME280_temperature;BME280_humidity;BME280_pressure;Samples;Min_cycle;Max_cycle;Signal;HPM_P1;HPM_P2
2024/01/23 00:00:29;;;;;;;6.77;1.70;;;;;;;6.56;89.35;100771.75;5026293;28;20120;-65
2024/01/23 00:02:55;;;;;;;7.87;1.23;;;;;;;6.63;89.13;100776.50;5026090;28;20567;-64
2024/01/23 00:05:20;;;;;;;10.37;1.77;;;;;;;6.67;88.79;100781.13;5024618;28;20780;-66
2024/01/23 00:07:46;;;;;;;9.53;1.30;;;;;;;6.69;88.81;100778.59;5023439;28;20112;-66
2024/01/23 00:10:11;;;;;;;11.87;2.10;;;;;;;6.75;88.91;100785.09;5023739;28;20056;-62
2024/01/23 00:12:36;;;;;;;7.27;1.13;;;;;;;6.79;88.47;100787.06;5023375;28;20391;-65
2024/01/23 00:15:03;;;;;;;6.93;1.20;;;;;;;6.85;88.17;100792.69;5024399;28;20120;-65
2024/01/23 00:17:29;;;;;;;5.68;1.10;;;;;;;6.86;87.87;100783.03;5024538;28;20090;-67
2024/01/23 00:19:54;;;;;;;5.07;1.00;;;;;;;6.87;88.00;100790.13;5033266;28;20464;-65
2024/01/23 00:22:20;;;;;;;6.43;1.10;;;;;;;6.87;88.13;100783.16;5020939;28;20037;-65
2024/01/23 00:24:45;;;;;;;9.50;1.47;;;;;;;6.89;87.98;100783.25;5024205;28;20091;-68
2024/01/23 00:27:10;;;;;;;7.40;1.00;;;;;;;6.94;87.73;100798.44;5021162;28;20103;-64
2024/01/23 00:29:36;;;;;;;9.33;1.37;;;;;;;6.96;87.34;100795.88;5022730;28;20414;-65
2024/01/23 00:32:02;;;;;;;5.30;1.15;;;;;;;6.99;87.40;100806.56;5024169;28;20044;-63
2024/01/23 00:34:27;;;;;;;8.93;1.23;;;;;;;7.05;87.01;100801.66;5024326;28;20041;-63
2024/01/23 00:36:53;;;;;;;9.68;1.17;;;;;;;7.16;86.76;100804.84;5030967;28;20055;-63
2024/01/23 00:39:18;;;;;;;8.10;1.10;;;;;;;7.23;86.06;100802.66;5024359;28;20041;-66
2024/01/23 00:41:43;;;;;;;7.33;1.10;;;;;;;7.31;85.39;100803.06;5023624;28;20103;-67
2024/01/23 00:44:09;;;;;;;5.83;0.90;;;;;;;7.38;84.89;100806.13;5023580;28;20140;-65
2024/01/23 00:46:34;;;;;;;5.63;0.95;;;;;;;7.36;85.04;100813.03;5023085;28;20041;-68
2024/01/23 00:49:00;;;;;;;6.53;0.90;;;;;;;7.38;84.63;100816.66;5022876;28;20626;-66
2024/01/23 00:51:25;;;;;;;4.13;0.83;;;;;;;7.38;84.58;100831.50;5023873;28;20029;-66
2024/01/23 00:53:51;;;;;;;5.63;0.90;;;;;;;7.36;84.85;100836.66;5024342;28;20033;-64
2024/01/23 00:56:16;;;;;;;7.50;1.20;;;;;;;7.37;84.56;100840.19;5023776;28;20037;-67
2024/01/23 00:58:42;;;;;;;5.47;0.90;;;;;;;7.35;84.47;100840.09;5031051;28;20134;-64
2024/01/23 01:01:07;;;;;;;6.53;1.27;;;;;;;7.33;84.49;100847.03;5028345;28;20499;-64
2024/01/23 01:03:32;;;;;;;8.13;1.23;;;;;;;7.23;85.44;100852.59;5023474;28;20072;-68
2024/01/23 01:05:58;;;;;;;7.67;0.90;;;;;;;7.07;86.73;100844.66;5022556;28;20136;-66
2024/01/23 01:08:23;;;;;;;4.77;1.27;;;;;;;6.91;88.18;100844.59;5023412;28;20556;-72
2024/01/23 01:10:48;;;;;;;6.40;1.43;;;;;;;6.80;88.90;100846.63;5022380;28;20037;-73
2024/01/23 01:13:14;;;;;;;7.77;1.17;;;;;;;6.68;90.06;100864.28;5023283;28;20507;-66
2024/01/23 01:15:40;;;;;;;10.13;1.30;;;;;;;6.56;91.08;100860.97;5022703;28;20053;-67
2024/01/23 01:18:07;;;;;;;5.77;1.00;;;;;;;6.44;92.06;100855.91;5022828;28;20060;-66
2024/01/23 01:20:33;;;;;;;10.48;1.23;;;;;;;6.35;93.21;100850.13;5022557;28;20131;-69
2024/01/23 01:22:58;;;;;;;5.47;0.70;;;;;;;6.31;93.56;100837.63;5024093;28;20037;-74
2024/01/23 01:25:25;;;;;;;6.90;0.63;;;;;;;6.23;93.41;100844.13;5022884;28;20572;-67
2024/01/23 01:27:50;;;;;;;7.77;1.07;;;;;;;6.19;93.70;100844.75;5022491;28;20076;-70
2024/01/23 01:30:15;;;;;;;6.97;0.98;;;;;;;6.14;93.79;100838.34;5022529;28;20405;-74
2024/01/23 01:32:41;;;;;;;7.77;1.23;;;;;;;6.13;94.32;100835.63;5022627;28;20054;-70
2024/01/23 01:35:07;;;;;;;7.37;1.10;;;;;;;6.08;94.47;100836.25;5020960;28;20502;-72
2024/01/23 01:37:32;;;;;;;7.43;1.15;;;;;;;6.07;94.64;100844.00;5025695;28;20033;-66
2024/01/23 01:39:57;;;;;;;8.73;1.07;;;;;;;6.03;94.97;100852.50;5026083;28;20136;-68
2024/01/23 01:42:23;;;;;;;7.53;0.93;;;;;;;5.98;95.06;100861.81;5026768;28;20116;-67
2024/01/23 01:44:48;;;;;;;4.60;0.97;;;;;;;5.97;95.01;100855.66;5025431;28;20072;-65
2024/01/23 01:47:14;;;;;;;5.05;1.00;;;;;;;5.89;95.06;100850.78;5026401;28;20041;-71
2024/01/23 01:49:39;;;;;;;7.63;1.20;;;;;;;5.86;95.45;100863.66;5025730;28;20452;-72
2024/01/23 01:52:05;;;;;;;6.90;0.97;;;;;;;5.82;95.60;100854.69;5025623;28;20045;-66
2024/01/23 01:54:31;;;;;;;7.72;1.17;;;;;;;5.76;95.86;100856.06;5026480;28;20033;-64
2024/01/23 01:56:59;;;;;;;5.73;1.13;;;;;;;5.71;96.08;100857.50;5024804;28;20041;-65
2024/01/23 01:59:24;;;;;;;6.70;1.15;;;;;;;5.61;96.40;100854.31;5033044;28;20037;-71
2024/01/23 02:01:50;;;;;;;8.27;1.40;;;;;;;5.55;96.66;100856.53;5031303;28;20056;-75
2024/01/23 02:04:16;;;;;;;5.03;1.13;;;;;;;5.47;96.87;100863.03;5017974;28;20052;-65
2024/01/23 02:06:42;;;;;;;5.07;1.10;;;;;;;5.42;97.22;100861.81;5026655;28;20057;-68
2024/01/23 02:09:08;;;;;;;15.45;1.80;;;;;;;5.35;97.56;100854.38;5025750;28;20112;-74
2024/01/23 02:11:34;;;;;;;8.88;1.50;;;;;;;5.30;97.71;100863.66;5026000;28;20163;-67
2024/01/23 02:13:59;;;;;;;6.80;1.17;;;;;;;5.22;98.11;100846.56;5026343;28;20041;-73
2024/01/23 02:16:25;;;;;;;9.53;1.97;;;;;;;5.18;98.12;100855.91;5025945;28;20048;-67
2024/01/23 02:18:50;;;;;;;5.47;1.00;;;;;;;5.17;98.27;100863.69;5025577;28;20127;-71
2024/01/23 02:21:15;;;;;;;9.07;1.40;;;;;;;5.14;98.41;100855.63;5017843;28;20033;-73
2024/01/23 02:23:44;;;;;;;4.63;1.30;;;;;;;5.11;98.67;100853.72;5025751;28;20036;-66
2024/01/23 02:26:13;;;;;;;7.10;0.93;;;;;;;5.14;98.89;100866.09;5024256;28;20042;-66
2024/01/23 02:28:38;;;;;;;8.20;1.40;;;;;;;5.18;98.71;100860.28;5025524;28;20040;-72
2024/01/23 02:31:04;;;;;;;9.93;1.67;;;;;;;5.24;98.78;100855.41;5025205;28;20132;-69
2024/01/23 02:33:29;;;;;;;8.10;1.30;;;;;;;5.25;98.60;100851.97;5025592;28;20040;-65
2024/01/23 02:35:54;;;;;;;7.97;1.50;;;;;;;5.30;98.66;100852.28;5023930;28;20570;-71
2024/01/23 02:38:20;;;;;;;8.77;1.33;;;;;;;5.40;99.12;100855.56;5025376;28;20104;-67
2024/01/23 02:40:45;;;;;;;4.67;1.13;;;;;;;5.41;98.70;100860.00;5025549;28;20120;-64
2024/01/23 02:43:11;;;;;;;5.23;1.10;;;;;;;5.45;99.04;100868.97;5025021;28;20214;-70
2024/01/23 02:45:36;;;;;;;5.13;1.35;;;;;;;5.46;99.24;100866.44;5024764;28;20064;-66
2024/01/23 02:48:02;;;;;;;6.53;1.50;;;;;;;5.49;99.20;100861.38;5024879;28;20080;-70
2024/01/23 02:50:29;;;;;;;5.18;1.30;;;;;;;5.55;99.31;100858.25;5025769;28;20030;-68
2024/01/23 02:52:54;;;;;;;5.17;1.10;;;;;;;5.57;99.16;100857.53;5025744;28;20038;-68
2024/01/23 02:55:19;;;;;;;4.90;1.00;;;;;;;5.57;99.38;100857.53;5024854;28;20048;-70
2024/01/23 02:57:45;;;;;;;12.90;1.17;;;;;;;5.58;99.41;100851.47;5032478;28;20045;-67
2024/01/23 03:00:11;;;;;;;8.40;1.20;;;;;;;5.58;99.45;100864.56;5025752;28;20105;-67
2024/01/23 03:02:36;;;;;;;8.30;1.45;;;;;;;5.58;99.89;100856.72;5024522;28;20029;-65
2024/01/23 03:07:29;;;;;;;7.18;1.02;;;;;;;5.64;99.88;100871.91;5101488;27;20386;-65
2024/01/23 03:09:54;;;;;;;5.33;1.13;;;;;;;5.64;99.80;100867.59;5100445;28;20065;-67
2024/01/23 03:12:22;;;;;;;8.80;1.13;;;;;;;5.62;99.66;100871.81;5088579;28;20584;-68
2024/01/23 03:14:48;;;;;;;6.67;1.17;;;;;;;5.61;99.92;100879.59;5088101;28;20415;-64
2024/01/23 03:17:14;;;;;;;4.70;1.00;;;;;;;5.65;99.90;100885.13;5083139;28;20054;-67
2024/01/23 03:19:41;;;;;;;6.10;1.10;;;;;;;5.65;99.78;100879.88;5089890;28;20549;-65
2024/01/23 03:22:07;;;;;;;6.38;1.02;;;;;;;5.67;99.76;100879.06;5079609;28;20054;-67
2024/01/23 03:24:33;;;;;;;8.63;1.15;;;;;;;5.65;99.64;100878.97;5094826;28;20100;-67
2024/01/23 03:26:59;;;;;;;9.37;1.30;;;;;;;5.67;99.81;100884.31;5090583;28;20457;-67
2024/01/23 03:31:54;;;;;;;5.35;1.02;;;;;;;5.67;99.56;100897.41;5100927;27;20395;-66
2024/01/23 03:34:20;;;;;;;8.17;1.33;;;;;;;5.67;99.68;100895.72;5100257;28;20042;-64
2024/01/23 03:36:45;;;;;;;7.57;1.33;;;;;;;5.69;99.74;100894.06;5100677;28;21022;-64
2024/01/23 03:39:11;;;;;;;5.55;0.63;;;;;;;5.71;99.75;100902.94;5100775;28;20050;-68
2024/01/23 03:41:37;;;;;;;6.97;1.20;;;;;;;5.74;99.34;100899.59;5101838;28;20062;-68
2024/01/23 03:44:06;;;;;;;7.43;0.90;;;;;;;5.73;99.41;100901.31;5101214;28;20426;-64
2024/01/23 03:46:34;;;;;;;6.63;1.00;;;;;;;5.73;99.36;100898.69;5100970;28;20039;-66
2024/01/23 03:48:59;;;;;;;12.23;1.58;;;;;;;5.70;99.36;100911.59;5103145;28;20040;-64
2024/01/23 03:51:25;;;;;;;8.07;1.10;;;;;;;5.65;99.22;100913.94;5096326;28;20485;-68
2024/01/23 03:53:50;;;;;;;5.67;1.00;;;;;;;5.68;99.25;100920.16;5100329;28;20100;-70
2024/01/23 03:56:16;;;;;;;9.77;1.20;;;;;;;5.67;99.01;100921.00;5091477;28;20314;-69
2024/01/23 03:58:42;;;;;;;6.23;0.97;;;;;;;5.63;98.88;100926.03;5095864;28;20032;-64
2024/01/23 04:01:08;;;;;;;4.45;0.70;;;;;;;5.61;98.54;100926.75;5096070;28;20563;-65
2024/01/23 04:03:33;;;;;;;4.20;0.90;;;;;;;5.62;98.87;100937.31;5098840;28;20043;-67
2024/01/23 04:05:59;;;;;;;4.67;0.90;;;;;;;5.62;98.46;100924.22;5098404;28;20403;-64
2024/01/23 04:08:24;;;;;;;5.25;0.90;;;;;;;5.62;98.30;100937.31;5100367;28;20120;-64
2024/01/23 04:10:49;;;;;;;7.87;1.30;;;;;;;5.61;98.06;100934.63;5099300;28;20044;-65
2024/01/23 04:13:15;;;;;;;8.37;0.80;;;;;;;5.56;98.04;100939.56;5092644;28;20032;-68
2024/01/23 04:15:40;;;;;;;5.43;1.13;;;;;;;5.54;98.10;100945.50;5098776;28;20111;-65
2024/01/23 04:18:06;;;;;;;10.70;1.08;;;;;;;5.53;98.08;100944.59;5100532;28;20131;-65
2024/01/23 04:20:31;;;;;;;6.50;0.70;;;;;;;5.56;97.84;100949.13;5099532;28;20024;-67
2024/01/23 04:22:57;;;;;;;8.37;1.17;;;;;;;5.57;97.92;100949.25;5099522;28;20108;-68
2024/01/23 04:25:22;;;;;;;5.03;0.80;;;;;;;5.61;97.65;100953.88;5099427;28;20285;-65
2024/01/23 04:27:47;;;;;;;7.50;0.77;;;;;;;5.65;97.43;100961.09;5099677;28;20479;-67
2024/01/23 04:30:13;;;;;;;5.10;0.90;;;;;;;5.71;97.09;100964.94;5098720;28;20085;-68
2024/01/23 04:32:38;;;;;;;6.77;0.90;;;;;;;5.72;96.89;100969.38;5099523;28;20499;-66
2024/01/23 04:35:04;;;;;;;5.33;0.80;;;;;;;5.73;96.76;100979.00;5098947;28;20297;-69
2024/01/23 04:37:29;;;;;;;5.90;1.10;;;;;;;5.74;96.97;100975.59;5099149;28;20036;-66
2024/01/23 04:39:55;;;;;;;6.60;1.03;;;;;;;5.77;96.89;100981.03;5098729;28;20052;-69
2024/01/23 04:42:21;;;;;;;5.05;0.80;;;;;;;5.79;96.89;100992.50;5091616;28;20177;-66
2024/01/23 04:44:46;;;;;;;12.87;1.60;;;;;;;5.81;96.76;100994.44;5082454;28;20086;-65
2024/01/23 04:47:12;;;;;;;5.35;1.00;;;;;;;5.85;96.76;101003.41;5083692;28;20066;-68
2024/01/23 04:49:37;;;;;;;8.23;0.90;;;;;;;5.89;96.45;101008.06;5085173;28;20039;-64
2024/01/23 04:52:03;;;;;;;7.43;1.20;;;;;;;5.92;96.37;101008.25;5084811;28;20471;-64
2024/01/23 04:54:28;;;;;;;13.40;1.17;;;;;;;5.93;96.51;101002.19;5085766;28;20036;-64
2024/01/23 04:56:53;;;;;;;8.90;1.07;;;;;;;5.90;96.62;101015.13;5084879;28;20298;-68
2024/01/23 04:59:19;;;;;;;6.20;0.83;;;;;;;5.88;96.82;101015.00;5085779;28;20139;-67
2024/01/23 05:01:44;;;;;;;7.30;0.90;;;;;;;5.82;96.85;101022.44;5085685;28;20089;-64
2024/01/23 05:04:10;;;;;;;4.30;1.43;;;;;;;5.79;97.40;101029.22;5086495;28;20135;-69
2024/01/23 05:06:35;;;;;;;7.70;1.00;;;;;;;5.74;97.39;101031.53;5085523;28;20040;-66
2024/01/23 05:09:00;;;;;;;6.97;0.93;;;;;;;5.69;97.76;101042.53;5085492;28;20373;-65
2024/01/23 05:11:26;;;;;;;9.73;1.30;;;;;;;5.62;98.25;101039.50;5085530;28;20131;-67
2024/01/23 05:13:51;;;;;;;4.43;0.60;;;;;;;5.58;99.03;101044.44;5085013;28;20123;-67
2024/01/23 05:16:16;;;;;;;5.97;0.93;;;;;;;5.55;99.35;101057.34;5084738;28;20036;-64
2024/01/23 05:18:42;;;;;;;5.93;1.00;;;;;;;5.52;99.53;101059.78;5085379;28;20123;-64
2024/01/23 05:21:08;;;;;;;7.93;1.10;;;;;;;5.49;99.71;101068.34;5087787;28;20993;-65
2024/01/23 05:23:33;;;;;;;9.13;0.95;;;;;;;5.50;99.80;101079.72;5086529;28;20031;-63
2024/01/23 05:25:59;;;;;;;8.27;1.57;;;;;;;5.49;99.96;101093.63;5087876;28;20101;-65
2024/01/23 05:28:24;;;;;;;7.83;1.07;;;;;;;5.48;100.00;101086.56;5088340;28;20032;-68
2024/01/23 05:30:49;;;;;;;8.07;0.70;;;;;;;5.42;99.82;101092.34;5087401;28;20089;-64
2024/01/23 05:33:15;;;;;;;4.77;0.93;;;;;;;5.37;100.00;101082.34;5088202;28;20377;-64
2024/01/23 05:35:40;;;;;;;6.03;0.90;;;;;;;5.34;100.00;101092.59;5087745;28;20035;-68
2024/01/23 05:38:06;;;;;;;12.83;1.03;;;;;;;5.36;100.00;101101.47;5087966;28;20064;-64
2024/01/23 05:40:32;;;;;;;3.65;0.75;;;;;;;5.37;100.00;101108.53;5087648;28;20028;-67
2024/01/23 05:42:57;;;;;;;7.77;1.10;;;;;;;5.38;100.00;101111.22;5087984;28;20059;-67
2024/01/23 05:45:22;;;;;;;5.43;0.90;;;;;;;5.38;100.00;101124.34;5087334;28;20110;-67
2024/01/23 05:47:48;;;;;;;6.60;0.90;;;;;;;5.37;100.00;101122.53;5087760;28;20578;-70
2024/01/23 05:50:13;;;;;;;5.50;0.77;;;;;;;5.34;100.00;101119.69;5087088;28;20032;-66
2024/01/23 05:52:38;;;;;;;8.80;1.00;;;;;;;5.30;100.00;101122.91;5087452;28;20031;-67
2024/01/23 05:55:04;;;;;;;4.93;0.83;;;;;;;5.27;100.00;101133.19;5086374;28;20036;-69
2024/01/23 05:57:29;;;;;;;6.87;0.93;;;;;;;5.24;100.00;101132.97;5087273;28;20092;-64
2024/01/23 05:59:56;;;;;;;6.43;1.07;;;;;;;5.20;100.00;101130.97;5086402;28;20034;-68
2024/01/23 06:02:21;;;;;;;3.83;0.70;;;;;;;5.13;100.00;101139.22;5087326;28;20042;-67
2024/01/23 06:04:46;;;;;;;10.60;0.97;;;;;;;5.07;100.00;101134.47;5086879;28;20035;-66
2024/01/23 06:07:12;;;;;;;7.07;1.25;;;;;;;5.02;100.00;101145.41;5086535;28;20043;-66
2024/01/23 06:09:38;;;;;;;8.60;1.10;;;;;;;5.02;100.00;101150.66;5086617;28;20469;-65
2024/01/23 06:12:03;;;;;;;11.47;1.57;;;;;;;5.02;100.00;101153.28;5086447;28;20177;-64
2024/01/23 06:14:29;;;;;;;8.05;1.00;;;;;;;5.01;100.00;101147.13;5085997;28;20040;-68
2024/01/23 06:16:54;;;;;;;6.60;1.07;;;;;;;5.05;100.00;101156.09;5085588;28;20057;-64
2024/01/23 06:19:19;;;;;;;9.33;1.83;;;;;;;5.10;100.00;101154.69;5086412;28;20119;-64
2024/01/23 06:21:45;;;;;;;12.07;1.40;;;;;;;5.11;100.00;101167.00;5086342;28;20028;-69
2024/01/23 06:24:10;;;;;;;10.93;1.50;;;;;;;5.18;100.00;101169.25;5086273;28;20032;-63
2024/01/23 06:26:36;;;;;;;6.83;1.53;;;;;;;5.20;100.00;101167.63;5086192;28;20063;-64
2024/01/23 06:29:02;;;;;;;6.70;1.00;;;;;;;5.25;100.00;101170.53;5077556;28;20122;-69
2024/01/23 06:31:27;;;;;;;10.50;1.50;;;;;;;5.29;100.00;101183.94;5084992;28;20035;-64
2024/01/23 06:33:54;;;;;;;14.47;1.70;;;;;;;5.28;100.00;101179.50;5083858;28;20047;-67
2024/01/23 06:36:20;;;;;;;7.85;1.13;;;;;;;5.25;100.00;101187.16;5083307;28;20054;-66
2024/01/23 06:38:45;;;;;;;7.88;1.15;;;;;;;5.30;100.00;101191.00;5083920;28;20660;-68
2024/01/23 06:41:10;;;;;;;10.13;1.47;;;;;;;5.36;100.00;101198.38;5083105;28;20040;-64
2024/01/23 06:43:36;;;;;;;14.50;1.20;;;;;;;5.39;100.00;101195.97;5075746;28;20040;-64
2024/01/23 06:46:02;;;;;;;7.67;1.10;;;;;;;5.45;100.00;101202.53;5083235;28;20096;-64
2024/01/23 06:48:27;;;;;;;6.50;1.10;;;;;;;5.49;100.00;101211.50;5083699;28;20071;-65
2024/01/23 06:50:52;;;;;;;7.03;1.23;;;;;;;5.56;100.00;101198.94;5082824;28;20076;-63
2024/01/23 06:53:18;;;;;;;4.57;0.80;;;;;;;5.56;100.00;101219.00;5083862;28;20167;-67
2024/01/23 06:55:44;;;;;;;11.07;1.67;;;;;;;5.60;100.00;101216.69;5082869;28;20294;-66
2024/01/23 06:58:09;;;;;;;13.23;1.67;;;;;;;5.69;100.00;101228.59;5083081;28;20519;-66
2024/01/23 07:00:34;;;;;;;7.93;1.40;;;;;;;5.75;100.00;101229.91;5082677;28;20032;-63
2024/01/23 07:03:00;;;;;;;15.68;1.60;;;;;;;5.81;99.86;101234.66;5083218;28;20127;-69
2024/01/23 07:05:25;;;;;;;6.90;1.10;;;;;;;5.87;99.58;101240.38;5082632;28;20127;-65
2024/01/23 07:10:10;;;;;;;7.20;1.10;;;;;;;5.89;99.00;101257.09;4978489;28;20441;-71
2024/01/23 07:12:35;;;;;;;11.50;1.70;;;;;;;5.96;98.84;101260.25;4958567;28;20545;-68
2024/01/23 07:15:00;;;;;;;8.55;1.33;;;;;;;6.02;97.59;101263.25;4958520;28;20057;-66
2024/01/23 07:17:26;;;;;;;10.07;1.63;;;;;;;6.10;96.92;101257.63;4958995;28;20069;-70
2024/01/23 07:19:51;;;;;;;11.97;1.37;;;;;;;6.08;96.65;101257.50;4958271;28;20134;-66
2024/01/23 07:22:17;;;;;;;5.30;0.97;;;;;;;6.13;96.46;101263.97;4950820;28;20046;-65
2024/01/23 07:24:42;;;;;;;17.52;1.75;;;;;;;6.20;96.09;101278.41;4958755;28;20042;-66
2024/01/23 07:27:08;;;;;;;21.03;3.63;;;;;;;6.23;95.25;101269.03;4958378;28;20104;-64
2024/01/23 07:29:34;;;;;;;6.00;1.17;;;;;;;6.26;94.76;101279.75;4966426;28;20046;-68
2024/01/23 07:32:00;;;;;;;11.23;1.33;;;;;;;6.24;94.79;101283.97;4966463;28;20203;-69
2024/01/23 07:34:25;;;;;;;11.93;1.67;;;;;;;6.25;94.96;101275.28;4959861;28;20172;-68
2024/01/23 07:36:50;;;;;;;9.43;1.40;;;;;;;6.33;94.01;101278.41;4957734;28;20100;-66
2024/01/23 07:39:16;;;;;;;8.73;1.93;;;;;;;6.39;93.26;101284.06;4969350;28;20118;-71
2024/01/23 07:41:43;;;;;;;13.00;1.90;;;;;;;6.40;93.05;101280.63;4963181;28;20369;-66
2024/01/23 07:44:08;;;;;;;18.10;1.95;;;;;;;6.39;92.91;101284.06;4968115;28;20114;-72
2024/01/23 07:46:33;;;;;;;10.80;1.53;;;;;;;6.44;91.64;101294.06;4971814;28;20523;-65
2024/01/23 07:48:59;;;;;;;9.63;1.50;;;;;;;6.50;90.58;101280.44;4957760;28;20088;-70
2024/01/23 07:51:24;;;;;;;11.10;1.83;;;;;;;6.55;90.43;101281.66;4957901;28;20076;-71
2024/01/23 07:53:50;;;;;;;16.50;2.07;;;;;;;6.58;90.30;101292.34;4957679;28;20031;-64
2024/01/23 07:56:16;;;;;;;10.88;1.33;;;;;;;6.60;90.68;101287.19;4957576;28;20073;-64
2024/01/23 07:58:41;;;;;;;9.90;2.27;;;;;;;6.64;90.29;101283.97;4966119;28;20058;-69
2024/01/23 08:01:06;;;;;;;13.63;1.85;;;;;;;6.65;90.31;101275.28;4973458;28;20107;-73
2024/01/23 08:03:32;;;;;;;18.77;2.27;;;;;;;6.66;89.66;101288.47;4958126;28;20039;-65
2024/01/23 08:05:57;;;;;;;9.37;1.50;;;;;;;6.67;89.95;101306.03;4957758;28;20062;-66
2024/01/23 08:10:35;;;;;;;10.73;1.50;;;;;;;6.74;89.79;101307.38;4991712;28;20389;-69
2024/01/23 08:13:02;;;;;;;13.30;1.70;;;;;;;6.75;89.59;101309.19;4979070;28;20043;-66
2024/01/23 08:15:27;;;;;;;6.40;1.20;;;;;;;6.74;88.83;101302.13;4978444;28;20122;-65
2024/01/23 08:17:52;;;;;;;15.73;2.27;;;;;;;6.76;89.13;101308.38;4978738;28;20107;-67
2024/01/23 08:20:18;;;;;;;10.88;1.63;;;;;;;6.82;89.20;101293.00;4977946;28;20106;-64
2024/01/23 08:22:43;;;;;;;9.10;1.67;;;;;;;6.89;89.02;101292.59;4978093;28;20047;-67
2024/01/23 08:25:09;;;;;;;14.67;1.60;;;;;;;6.96;88.67;101301.78;4976718;28;20044;-71
2024/01/23 08:27:34;;;;;;;16.17;1.75;;;;;;;7.03;88.64;101312.78;4977760;28;20062;-67
2024/01/23 08:30:01;;;;;;;9.00;1.40;;;;;;;7.07;87.45;101313.88;4977518;28;20053;-64
2024/01/23 08:32:26;;;;;;;13.15;1.55;;;;;;;7.11;87.27;101322.03;4977965;28;20054;-69
2024/01/23 08:34:51;;;;;;;10.37;1.80;;;;;;;7.16;86.87;101317.06;4978736;28;20034;-65
2024/01/23 08:37:17;;;;;;;5.87;1.13;;;;;;;7.19;86.57;101320.81;4980760;28;20133;-63
2024/01/23 08:41:54;;;;;;;14.57;1.30;;;;;;;7.21;85.44;101328.78;5001833;28;20418;-63
2024/01/23 08:44:21;;;;;;;12.57;1.87;;;;;;;7.19;85.36;101331.34;4996442;28;20038;-63
2024/01/23 08:46:46;;;;;;;12.07;1.63;;;;;;;7.20;85.37;101355.88;4989809;28;20097;-70
2024/01/23 08:49:11;;;;;;;12.20;1.43;;;;;;;7.19;85.57;101357.59;4989830;28;20593;-65
2024/01/23 08:51:37;;;;;;;10.73;1.40;;;;;;;7.19;84.37;101356.69;4984301;28;20321;-65
2024/01/23 08:54:03;;;;;;;10.87;1.60;;;;;;;7.23;84.36;101358.69;4993947;28;20098;-65
2024/01/23 08:56:29;;;;;;;11.57;1.60;;;;;;;7.28;84.16;101373.94;4977195;28;20387;-71
2024/01/23 09:01:21;;;;;;;9.25;1.17;;;;;;;7.38;84.01;101363.22;5102082;27;20774;-69
2024/01/23 09:03:46;;;;;;;11.53;1.40;;;;;;;7.46;82.84;101374.19;5086683;28;20036;-66
2024/01/23 09:06:12;;;;;;;7.88;1.30;;;;;;;7.55;83.02;101374.75;5080594;27;20130;-68
2024/01/23 09:08:40;;;;;;;6.90;1.37;;;;;;;7.64;82.67;101385.88;5080695;28;20093;-69
2024/01/23 09:13:21;;;;;;;7.88;1.30;;;;;;;7.67;81.59;101385.16;5104833;27;21051;-64
2024/01/23 09:15:47;;;;;;;14.67;1.73;;;;;;;7.68;81.32;101393.16;5091940;28;20059;-63
2024/01/23 09:18:12;;;;;;;14.93;1.83;;;;;;;7.71;81.29;101408.19;5087952;28;20161;-64
2024/01/23 09:20:38;;;;;;;7.33;0.93;;;;;;;7.76;80.89;101398.88;5066347;28;20043;-70
2024/01/23 09:23:03;;;;;;;10.93;1.47;;;;;;;7.78;80.88;101389.38;5059912;28;20044;-67
2024/01/23 09:25:29;;;;;;;14.40;1.90;;;;;;;7.75;80.33;101384.81;5059802;28;20294;-73
2024/01/23 09:27:55;;;;;;;13.73;1.53;;;;;;;7.83;80.08;101393.19;5065674;28;20127;-66
2024/01/23 09:30:21;;;;;;;8.60;1.88;;;;;;;7.87;79.61;101396.91;5078614;28;20511;-64
2024/01/23 09:32:46;;;;;;;7.83;1.10;;;;;;;7.86;79.53;101401.25;5063519;28;20037;-65
2024/01/23 09:35:14;;;;;;;10.13;1.58;;;;;;;7.86;79.52;101398.63;5074131;28;20130;-67
2024/01/23 09:37:40;;;;;;;11.77;1.67;;;;;;;7.94;78.81;101420.16;5076164;28;20432;-69
2024/01/23 09:40:08;;;;;;;13.85;1.90;;;;;;;7.99;78.67;101402.94;5062763;28;20051;-66
2024/01/23 09:42:37;;;;;;;5.57;0.80;;;;;;;8.02;78.53;101429.41;5063482;28;20308;-66
2024/01/23 09:45:09;;;;;;;8.52;1.25;;;;;;;8.08;78.55;101425.47;5065653;28;20041;-69
2024/01/23 09:47:35;;;;;;;9.02;1.40;;;;;;;8.16;78.35;101436.44;5060050;28;20041;-68
2024/01/23 09:50:02;;;;;;;8.90;1.50;;;;;;;8.18;78.32;101419.94;5059609;28;20063;-71
2024/01/23 09:52:29;;;;;;;13.23;2.05;;;;;;;8.23;78.28;101433.38;5060029;28;20078;-67
2024/01/23 09:54:54;;;;;;;15.43;1.90;;;;;;;8.21;77.77;101438.53;5059625;28;20032;-69
2024/01/23 09:57:20;;;;;;;10.20;2.10;;;;;;;8.29;77.75;101435.47;5068328;28;20067;-65
2024/01/23 09:59:48;;;;;;;19.23;1.90;;;;;;;8.50;77.53;101445.59;5059381;28;20527;-69
2024/01/23 10:02:14;;;;;;;9.40;1.45;;;;;;;8.62;76.80;101451.63;5065961;28;20033;-68
2024/01/23 10:04:40;;;;;;;16.63;2.03;;;;;;;8.70;76.32;101454.69;5059948;28;20051;-72
2024/01/23 10:07:08;;;;;;;12.65;1.25;;;;;;;8.64;76.16;101457.84;5061355;28;20082;-66
2024/01/23 10:09:34;;;;;;;14.07;1.85;;;;;;;8.56;76.65;101447.69;5065258;28;20041;-65
2024/01/23 10:11:59;;;;;;;10.17;1.53;;;;;;;8.49;76.54;101453.38;5060062;28;20037;-65
2024/01/23 10:14:25;;;;;;;16.88;1.60;;;;;;;8.42;76.82;101443.31;5075586;28;20040;-67
2024/01/23 10:16:50;;;;;;;14.00;2.43;;;;;;;8.35;76.58;101455.19;5065613;28;20040;-69
2024/01/23 10:19:16;;;;;;;13.73;2.03;;;;;;;8.35;76.77;101462.19;5073071;28;20599;-65
2024/01/23 10:21:42;;;;;;;12.45;1.90;;;;;;;8.36;76.55;101469.28;5074365;28;20028;-66
2024/01/23 10:24:07;;;;;;;9.97;1.90;;;;;;;8.34;76.92;101463.91;5053936;28;20524;-71
2024/01/23 10:26:33;;;;;;;13.57;2.20;;;;;;;8.44;76.74;101475.91;5048895;28;20128;-67
2024/01/23 10:29:01;;;;;;;13.93;1.65;;;;;;;8.43;76.29;101471.47;5048696;28;20086;-68
2024/01/23 10:31:26;;;;;;;13.82;1.73;;;;;;;8.47;76.08;101468.22;5048471;28;20033;-64
2024/01/23 10:33:52;;;;;;;12.70;1.80;;;;;;;8.54;76.10;101473.00;5050025;28;20882;-63
2024/01/23 10:36:18;;;;;;;9.05;2.35;;;;;;;8.78;75.61;101468.34;5055635;28;20029;-69
2024/01/23 10:38:43;;;;;;;9.60;1.30;;;;;;;8.93;74.86;101475.38;5047497;28;20171;-66
2024/01/23 10:41:11;;;;;;;17.25;2.38;;;;;;;8.95;74.74;101471.13;5045655;28;20485;-68
2024/01/23 10:43:38;;;;;;;7.18;1.70;;;;;;;8.99;74.72;101475.75;5047346;28;20035;-65
2024/01/23 10:46:03;;;;;;;9.27;1.20;;;;;;;9.02;74.50;101485.59;5046747;28;20060;-66
2024/01/23 10:48:30;;;;;;;16.20;2.17;;;;;;;9.12;74.05;101494.94;5046775;28;20076;-69
2024/01/23 10:51:13;;;;;;;11.90;1.42;;;;;;;9.20;73.60;101497.19;5054870;28;20036;-65
2024/01/23 10:53:47;;;;;;;14.47;1.90;;;;;;;9.32;73.22;101487.38;5050028;28;20025;-68
2024/01/23 10:56:15;;;;;;;10.68;1.27;;;;;;;9.39;72.60;101494.78;5047934;28;20534;-67
2024/01/23 10:58:42;;;;;;;9.93;1.73;;;;;;;9.21;72.01;101503.38;5056926;28;20121;-66
2024/01/23 11:01:11;;;;;;;9.98;1.42;;;;;;;9.04;72.36;101495.38;5054102;28;20560;-68
2024/01/23 11:03:38;;;;;;;12.77;1.63;;;;;;;9.04;72.38;101490.09;5051421;28;20506;-66
2024/01/23 11:06:14;;;;;;;10.00;1.37;;;;;;;9.03;72.71;101508.44;5047158;28;20140;-65
2024/01/23 11:08:48;;;;;;;11.55;2.30;;;;;;;9.05;72.29;101510.38;5045649;28;20436;-65
2024/01/23 11:11:28;;;;;;;8.38;1.50;;;;;;;9.06;72.34;101517.47;5044736;28;20037;-68
2024/01/23 11:14:17;;;;;;;12.23;2.10;;;;;;;9.04;72.61;101531.34;5045054;28;20043;-68
2024/01/23 11:17:00;;;;;;;15.32;2.00;;;;;;;9.04;72.60;101519.09;5052922;28;20715;-64
2024/01/23 11:21:43;;;;;;;9.20;1.60;;;;;;;9.18;72.01;101537.44;5060856;28;20373;-63
2024/01/23 11:24:08;;;;;;;9.85;1.50;;;;;;;9.24;71.39;101546.63;5051731;28;20115;-65
2024/01/23 11:26:34;;;;;;;8.83;1.10;;;;;;;9.21;71.27;101529.72;5046430;28;20124;-70
2024/01/23 11:29:04;;;;;;;13.00;1.50;;;;;;;9.27;71.45;101530.09;5040924;28;20051;-71
2024/01/23 11:31:37;;;;;;;15.52;2.00;;;;;;;9.31;70.92;101548.81;5055019;28;20037;-70
2024/01/23 11:34:37;;;;;;;13.73;2.28;;;;;;;9.70;70.60;101547.56;5028094;28;20042;-67
2024/01/23 11:37:03;;;;;;;7.83;1.83;;;;;;;9.69;69.57;101556.28;5048153;28;20044;-64
2024/01/23 11:39:33;;;;;;;19.70;2.05;;;;;;;9.71;69.82;101562.56;5040183;28;20044;-72
2024/01/23 11:41:58;;;;;;;12.15;2.15;;;;;;;9.87;68.91;101553.78;5040005;28;20037;-64